createdAt,value
2023-03-21T00:01:35.013Z,7.28
2023-03-21T00:06:38.917Z,7.85
2023-03-21T00:09:06.238Z,9.65
2023-03-21T00:11:32.930Z,7.88
2023-03-21T00:14:02.527Z,9.43
2023-03-21T00:16:30.687Z,8.52
2023-03-21T00:18:59.600Z,8.77
2023-03-21T00:21:44.318Z,8.63
2023-03-21T00:24:16.638Z,8.68
2023-03-21T00:26:44.204Z,7.93
2023-03-21T00:29:10.959Z,7.95
2023-03-21T00:31:37.890Z,10.50
2023-03-21T00:34:04.877Z,9.02
2023-03-21T00:36:32.297Z,9.85
2023-03-21T00:39:00.950Z,10.27
2023-03-21T00:41:41.986Z,10.02
2023-03-21T00:44:11.804Z,10.85
2023-03-21T00:46:47.223Z,9.85
2023-03-21T00:49:21.129Z,12.65
2023-03-21T00:51:53.302Z,9.98
2023-03-21T00:54:20.144Z,10.30
2023-03-21T00:56:46.938Z,10.90
2023-03-21T00:59:14.372Z,9.50
2023-03-21T01:01:41.317Z,10.23
2023-03-21T01:04:13.637Z,10.50
2023-03-21T01:06:42.624Z,9.68
2023-03-21T01:09:15.291Z,11.20
2023-03-21T01:11:42.575Z,10.27
2023-03-21T01:14:22.111Z,11.15
2023-03-21T01:16:53.832Z,9.80
2023-03-21T01:19:30.907Z,10.50
2023-03-21T01:21:59.896Z,11.65
2023-03-21T01:24:29.731Z,11.73
2023-03-21T01:26:56.590Z,11.07
2023-03-21T01:29:23.197Z,13.38
2023-03-21T01:31:51.574Z,11.77
2023-03-21T01:34:18.480Z,12.30
2023-03-21T01:36:45.357Z,12.20
2023-03-21T01:39:12.091Z,14.82
2023-03-21T01:41:44.682Z,12.15
2023-03-21T01:44:20.410Z,13.82
2023-03-21T01:47:11.357Z,13.25
2023-03-21T01:49:41.757Z,13.50
2023-03-21T01:52:21.024Z,16.48
2023-03-21T01:54:55.255Z,14.20
2023-03-21T01:57:43.550Z,17.67
2023-03-21T02:00:17.881Z,14.93
2023-03-21T02:03:00.437Z,16.35
2023-03-21T02:06:00.711Z,18.40
2023-03-21T02:08:38.670Z,22.50
2023-03-21T02:11:07.110Z,17.17
2023-03-21T02:13:33.685Z,18.13
2023-03-21T02:16:22.786Z,17.88
2023-03-21T02:19:10.791Z,20.25
2023-03-21T02:22:13.775Z,18.42
2023-03-21T02:25:22.026Z,19.65
2023-03-21T02:27:56.139Z,18.20
2023-03-21T02:30:49.476Z,19.40
2023-03-21T02:33:39.909Z,18.55
2023-03-21T02:36:22.479Z,20.58
2023-03-21T02:39:08.808Z,19.90
2023-03-21T02:42:13.749Z,19.80
2023-03-21T02:45:11.975Z,19.02
2023-03-21T02:47:52.778Z,19.17
2023-03-21T02:50:27.898Z,22.05
2023-03-21T02:52:55.259Z,20.38
2023-03-21T02:55:26.689Z,21.92
2023-03-21T02:57:56.377Z,19.10
2023-03-21T03:00:27.440Z,18.55
2023-03-21T03:03:08.157Z,21.02
2023-03-21T03:05:42.444Z,20.02
2023-03-21T03:08:36.176Z,25.80
2023-03-21T03:11:24.953Z,22.33
2023-03-21T03:14:31.468Z,21.83
2023-03-21T03:17:22.055Z,20.73
2023-03-21T03:20:07.117Z,20.75
2023-03-21T03:22:55.024Z,19.92
2023-03-21T03:25:41.719Z,21.40
2023-03-21T03:28:11.182Z,23.08
2023-03-21T03:30:46.628Z,29.63
2023-03-21T03:33:17.349Z,21.63
2023-03-21T03:35:48.275Z,25.80
2023-03-21T03:38:22.170Z,21.27
2023-03-21T03:40:52.243Z,26.15
2023-03-21T03:43:27.998Z,23.65
2023-03-21T03:45:59.371Z,21.73
2023-03-21T03:48:31.070Z,21.10
2023-03-21T03:51:11.177Z,20.55
2023-03-21T03:53:46.818Z,23.30
2023-03-21T03:56:16.986Z,22.38
2023-03-21T03:58:45.991Z,21.30
2023-03-21T04:01:12.936Z,26.65
2023-03-21T04:03:48.878Z,23.30
2023-03-21T04:06:19.843Z,23.77
2023-03-21T04:08:46.543Z,23.80
2023-03-21T04:11:16.372Z,23.50
2023-03-21T04:13:43.294Z,24.20
2023-03-21T04:16:11.912Z,28.10
2023-03-21T04:18:39.401Z,22.42
2023-03-21T04:21:13.028Z,22.27
2023-03-21T04:23:40.606Z,20.33
2023-03-21T04:26:08.133Z,21.88
2023-03-21T04:28:37.405Z,23.95
2023-03-21T04:31:19.075Z,21.25
2023-03-21T04:33:51.008Z,24.83
2023-03-21T04:36:27.463Z,22.73
2023-03-21T04:38:58.127Z,20.75
2023-03-21T04:41:24.779Z,21.08
2023-03-21T04:43:52.708Z,20.98
2023-03-21T04:46:20.341Z,24.73
2023-03-21T04:48:47.367Z,24.33
2023-03-21T04:51:13.932Z,21.42
2023-03-21T04:53:42.698Z,21.92
2023-03-21T04:56:09.942Z,20.75
2023-03-21T04:58:36.774Z,19.90
2023-03-21T05:01:07.548Z,27.00
2023-03-21T05:03:35.016Z,21.25
2023-03-21T05:06:04.764Z,26.00
2023-03-21T05:08:36.250Z,21.92
2023-03-21T05:11:04.080Z,27.92
2023-03-21T05:13:33.842Z,23.65
2023-03-21T05:16:02.257Z,22.13
2023-03-21T05:18:30.623Z,22.67
2023-03-21T05:20:57.612Z,23.40
2023-03-21T05:23:24.826Z,27.30
2023-03-21T05:25:51.715Z,27.00
2023-03-21T05:28:21.397Z,27.35
2023-03-21T05:30:50.572Z,26.70
2023-03-21T05:33:17.257Z,26.92
2023-03-21T05:35:44.041Z,25.05
2023-03-21T05:38:10.826Z,24.48
2023-03-21T05:40:37.498Z,22.33
2023-03-21T05:43:04.308Z,25.10
2023-03-21T05:45:31.180Z,27.35
2023-03-21T05:47:58.319Z,25.83
2023-03-21T05:50:25.200Z,25.80
2023-03-21T05:55:32.080Z,26.17
2023-03-21T05:58:04.533Z,24.52
2023-03-21T06:00:31.506Z,23.85
2023-03-21T06:02:58.218Z,28.10
2023-03-21T06:05:24.977Z,26.58
2023-03-21T06:07:51.668Z,24.05
2023-03-21T06:10:18.494Z,29.05
2023-03-21T06:12:45.152Z,25.08
2023-03-21T06:15:14.890Z,27.90
2023-03-21T06:17:41.637Z,24.63
2023-03-21T06:20:09.319Z,25.75
2023-03-21T06:22:36.337Z,27.63
2023-03-21T06:25:04.141Z,33.47
2023-03-21T06:27:30.958Z,25.98
2023-03-21T06:30:00.716Z,24.17
2023-03-21T06:32:27.948Z,28.90
2023-03-21T06:34:54.724Z,27.42
2023-03-21T06:37:21.547Z,23.83
2023-03-21T06:39:52.643Z,32.33
2023-03-21T06:42:20.458Z,23.27
2023-03-21T06:44:49.970Z,27.77
2023-03-21T06:47:16.824Z,24.35
2023-03-21T06:49:44.064Z,22.88
2023-03-21T06:52:11.548Z,27.20
2023-03-21T06:54:38.396Z,25.92
2023-03-21T06:57:05.269Z,25.27
2023-03-21T06:59:33.873Z,26.58
2023-03-21T07:02:00.692Z,30.25
2023-03-21T07:04:27.763Z,24.83
2023-03-21T07:06:54.790Z,27.77
2023-03-21T07:09:24.840Z,28.90
2023-03-21T07:11:53.656Z,28.55
2023-03-21T07:14:21.600Z,25.73
2023-03-21T07:16:48.607Z,28.15
2023-03-21T07:19:15.990Z,29.45
2023-03-21T07:21:45.320Z,25.70
2023-03-21T07:24:11.951Z,25.23
2023-03-21T07:26:38.702Z,27.88
2023-03-21T07:29:07.202Z,28.70
2023-03-21T07:31:33.965Z,29.70
2023-03-21T07:34:00.748Z,27.98
2023-03-21T07:36:29.844Z,30.63
2023-03-21T07:38:56.908Z,31.33
2023-03-21T07:41:23.854Z,27.55
2023-03-21T07:43:50.508Z,26.85
2023-03-21T07:46:17.391Z,30.20
2023-03-21T07:48:44.046Z,31.42
2023-03-21T07:51:12.352Z,26.55
2023-03-21T07:53:42.302Z,25.98
2023-03-21T07:56:09.297Z,27.70
2023-03-21T07:58:37.362Z,26.10
2023-03-21T08:01:04.122Z,27.30
2023-03-21T08:03:32.889Z,25.85
2023-03-21T08:06:02.618Z,27.23
2023-03-21T08:08:29.310Z,28.95
2023-03-21T08:10:57.015Z,30.02
2023-03-21T08:13:23.662Z,30.23
2023-03-21T08:15:50.437Z,28.83
2023-03-21T08:18:17.724Z,27.13
2023-03-21T08:20:44.492Z,24.58
2023-03-21T08:23:11.615Z,30.25
2023-03-21T08:25:39.108Z,28.23
2023-03-21T08:28:06.051Z,25.88
2023-03-21T08:30:35.634Z,25.80
2023-03-21T08:33:02.885Z,32.90
2023-03-21T08:35:34.009Z,28.25
2023-03-21T08:38:03.830Z,28.25
2023-03-21T08:40:31.497Z,29.58
2023-03-21T08:43:00.930Z,30.33
2023-03-21T08:45:27.882Z,27.70
2023-03-21T08:48:06.079Z,28.65
2023-03-21T08:50:32.764Z,28.40
2023-03-21T08:52:59.516Z,26.17
2023-03-21T08:55:26.593Z,27.48
2023-03-21T08:57:56.143Z,24.30
2023-03-21T09:00:23.225Z,23.50
2023-03-21T09:02:52.338Z,30.27
2023-03-21T09:05:19.709Z,24.13
2023-03-21T09:07:47.363Z,25.40
2023-03-21T09:10:21.794Z,28.83
2023-03-21T09:12:53.857Z,25.00
2023-03-21T09:15:24.743Z,23.38
2023-03-21T09:17:57.210Z,26.80
2023-03-21T09:20:35.630Z,26.52
2023-03-21T09:23:02.822Z,24.67
2023-03-21T09:25:32.977Z,25.90
2023-03-21T09:28:04.552Z,27.08
2023-03-21T09:30:35.920Z,29.35
2023-03-21T09:33:06.859Z,25.42
2023-03-21T09:35:33.611Z,27.08
2023-03-21T09:38:00.613Z,22.73
2023-03-21T09:40:41.037Z,23.05
2023-03-21T09:43:33.499Z,23.13
2023-03-21T09:46:08.930Z,26.73
2023-03-21T09:48:56.385Z,25.27
2023-03-21T09:51:43.774Z,26.27
2023-03-21T09:54:21.451Z,26.63
2023-03-21T09:56:50.473Z,29.55
2023-03-21T09:59:36.757Z,25.90
2023-03-21T10:02:06.114Z,22.27
2023-03-21T10:04:35.081Z,21.90
2023-03-21T10:07:07.060Z,25.00
2023-03-21T10:09:35.870Z,24.20
2023-03-21T10:12:26.173Z,22.90
2023-03-21T10:14:57.077Z,25.10
2023-03-21T10:17:36.062Z,21.13
2023-03-21T10:20:21.522Z,20.48
2023-03-21T10:22:57.191Z,22.33
2023-03-21T10:25:35.885Z,23.08
2023-03-21T10:28:05.788Z,25.90
2023-03-21T10:30:42.714Z,25.65
2023-03-21T10:33:17.961Z,20.20
2023-03-21T10:35:50.039Z,21.23
2023-03-21T10:38:22.995Z,20.17
2023-03-21T10:40:49.680Z,24.13
2023-03-21T10:43:33.162Z,21.70
2023-03-21T10:46:06.583Z,19.50
2023-03-21T10:48:41.743Z,20.02
2023-03-21T10:51:09.876Z,18.02
2023-03-21T10:53:40.065Z,17.33
2023-03-21T10:56:09.498Z,18.50
2023-03-21T10:58:40.154Z,20.27
2023-03-21T11:01:09.892Z,18.27
2023-03-21T11:03:39.190Z,16.90
2023-03-21T11:06:18.107Z,16.98
2023-03-21T11:08:51.007Z,15.05
2023-03-21T11:11:42.970Z,18.73
2023-03-21T11:14:34.301Z,18.52
2023-03-21T11:17:02.100Z,25.75
2023-03-21T11:19:33.828Z,20.13
2023-03-21T11:22:06.355Z,18.10
2023-03-21T11:24:33.531Z,17.15
2023-03-21T11:27:01.626Z,19.73
2023-03-21T11:29:41.474Z,14.95
2023-03-21T11:32:13.442Z,18.73
2023-03-21T11:34:47.804Z,14.98
2023-03-21T11:37:26.452Z,16.30
2023-03-21T11:40:03.720Z,16.17
2023-03-21T11:42:33.928Z,16.73
2023-03-21T11:45:13.061Z,14.55
2023-03-21T11:47:40.009Z,17.52
2023-03-21T11:50:28.604Z,14.88
2023-03-21T11:53:20.061Z,14.85
2023-03-21T11:56:06.095Z,12.65
2023-03-21T11:58:50.988Z,12.93
2023-03-21T12:01:49.942Z,15.18
2023-03-21T12:04:32.069Z,16.48
2023-03-21T12:07:09.489Z,12.63
2023-03-21T12:09:44.745Z,13.48
2023-03-21T12:12:39.117Z,13.63
2023-03-21T12:15:14.878Z,11.93
2023-03-21T12:17:50.440Z,12.75
2023-03-21T12:20:23.854Z,12.00
2023-03-21T12:23:16.018Z,13.23
2023-03-21T12:25:58.328Z,11.25
2023-03-21T12:28:41.615Z,10.77
2023-03-21T12:31:20.274Z,13.63
2023-03-21T12:34:14.684Z,10.93
2023-03-21T12:37:07.261Z,10.35
2023-03-21T12:39:36.704Z,9.52
2023-03-21T12:42:20.804Z,10.95
2023-03-21T12:45:15.724Z,11.60
2023-03-21T12:47:48.809Z,10.32
2023-03-21T12:50:16.281Z,10.65
2023-03-21T12:52:45.580Z,8.88
2023-03-21T12:55:15.610Z,12.15
2023-03-21T12:57:57.896Z,8.52
2023-03-21T13:00:27.911Z,9.65
2023-03-21T13:03:30.567Z,10.40
2023-03-21T13:06:08.301Z,9.38
2023-03-21T13:08:44.936Z,9.13
2023-03-21T13:11:15.505Z,9.23
2023-03-21T13:14:11.870Z,11.88
2023-03-21T13:17:01.195Z,13.07
2023-03-21T13:19:44.498Z,8.98
2023-03-21T13:22:33.036Z,8.98
2023-03-21T13:25:18.289Z,10.20
2023-03-21T13:27:51.563Z,8.48
2023-03-21T13:30:27.268Z,14.73
2023-03-21T13:33:06.083Z,11.05
2023-03-21T13:38:18.953Z,8.95
2023-03-21T13:40:49.560Z,9.02
2023-03-21T13:43:45.605Z,11.52
2023-03-21T13:46:35.833Z,9.05
2023-03-21T13:49:10.356Z,10.55
2023-03-21T13:51:37.032Z,10.48
2023-03-21T13:54:16.339Z,8.80
2023-03-21T13:56:54.176Z,9.32
2023-03-21T13:59:35.294Z,8.77
2023-03-21T14:02:24.741Z,10.45
2023-03-21T14:05:07.845Z,8.40
2023-03-21T14:07:39.237Z,10.00
2023-03-21T14:10:14.847Z,8.15
2023-03-21T14:12:42.662Z,8.25
2023-03-21T14:15:19.326Z,10.52
2023-03-21T14:17:56.457Z,7.65
2023-03-21T14:20:30.661Z,8.43
2023-03-21T14:22:58.083Z,10.52
2023-03-21T14:25:31.323Z,8.80
2023-03-21T14:28:01.406Z,9.75
2023-03-21T14:30:32.472Z,7.85
2023-03-21T14:33:03.199Z,8.20
2023-03-21T14:35:31.859Z,7.82
2023-03-21T14:38:13.966Z,6.88
2023-03-21T14:40:49.946Z,6.32
2023-03-21T14:43:19.382Z,6.43
2023-03-21T14:45:48.687Z,6.55
2023-03-21T14:48:22.449Z,5.88
2023-03-21T14:50:52.220Z,7.50
2023-03-21T14:53:25.696Z,6.63
2023-03-21T14:56:16.466Z,6.03
2023-03-21T14:58:44.723Z,7.85
2023-03-21T15:01:38.736Z,7.22
2023-03-21T15:04:08.849Z,6.82
2023-03-21T15:06:49.998Z,7.97
2023-03-21T15:09:18.178Z,9.57
2023-03-21T15:11:53.981Z,9.50
2023-03-21T15:14:38.767Z,7.90
2023-03-21T15:17:08.964Z,7.40
2023-03-21T15:19:38.405Z,7.35
2023-03-21T15:22:31.301Z,7.82
2023-03-21T15:25:02.660Z,7.35
2023-03-21T15:27:33.410Z,6.72
2023-03-21T15:30:00.146Z,7.15
2023-03-21T15:32:28.474Z,7.45
2023-03-21T15:34:56.805Z,8.00
2023-03-21T15:37:26.740Z,7.43
2023-03-21T15:39:54.869Z,7.43
2023-03-21T15:42:24.194Z,10.40
2023-03-21T15:44:53.607Z,7.13
2023-03-21T15:47:39.486Z,7.47
2023-03-21T15:50:11.752Z,8.82
2023-03-21T15:52:41.546Z,10.68
2023-03-21T15:55:38.784Z,6.72
2023-03-21T15:58:15.870Z,6.32
2023-03-21T16:00:55.376Z,6.00
2023-03-21T16:03:25.954Z,7.10
2023-03-21T16:06:11.891Z,7.53
2023-03-21T16:08:51.432Z,6.10
2023-03-21T16:11:24.089Z,7.10
2023-03-21T16:13:52.093Z,9.88
2023-03-21T16:16:28.748Z,9.57
2023-03-21T16:18:57.412Z,8.63
2023-03-21T16:21:32.699Z,9.32
2023-03-21T16:23:59.316Z,7.10
2023-03-21T16:26:28.341Z,8.60
2023-03-21T16:28:55.102Z,8.10
2023-03-21T16:31:24.505Z,13.15
2023-03-21T16:33:51.495Z,8.02
2023-03-21T16:36:24.326Z,6.97
2023-03-21T16:38:54.496Z,11.80
2023-03-21T16:41:31.832Z,9.38
2023-03-21T16:44:02.026Z,8.52
2023-03-21T16:46:34.206Z,11.32
2023-03-21T16:49:02.072Z,9.35
2023-03-21T16:51:36.249Z,8.00
2023-03-21T16:54:03.090Z,9.40
2023-03-21T16:59:17.979Z,13.85
2023-03-21T17:01:48.772Z,8.40
2023-03-21T17:04:18.206Z,8.93
2023-03-21T17:06:47.734Z,9.40
2023-03-21T17:09:16.705Z,9.23
2023-03-21T17:11:44.090Z,9.63
2023-03-21T17:14:12.274Z,14.90
2023-03-21T17:16:45.321Z,10.65
2023-03-21T17:19:28.915Z,10.35
2023-03-21T17:21:55.737Z,10.85
2023-03-21T17:24:23.724Z,11.60
2023-03-21T17:26:50.824Z,12.85
2023-03-21T17:29:17.630Z,13.13
2023-03-21T17:31:47.462Z,12.73
2023-03-21T17:34:17.513Z,13.23
2023-03-21T17:36:46.608Z,12.93
2023-03-21T17:39:17.245Z,12.73
2023-03-21T17:41:44.013Z,13.07
2023-03-21T17:44:10.854Z,14.30
2023-03-21T17:46:38.885Z,13.68
2023-03-21T17:49:16.716Z,13.57
2023-03-21T17:51:48.461Z,13.50
2023-03-21T17:56:58.121Z,12.73
2023-03-21T17:59:25.003Z,14.27
2023-03-21T18:01:51.817Z,14.18
2023-03-21T18:04:20.013Z,21.90
2023-03-21T18:06:48.319Z,17.65
2023-03-21T18:09:20.246Z,12.77
2023-03-21T18:11:48.414Z,14.85
2023-03-21T18:14:18.305Z,14.65
2023-03-21T18:16:53.658Z,15.60
2023-03-21T18:19:20.529Z,15.65
2023-03-21T18:21:47.323Z,14.75
2023-03-21T18:24:17.344Z,17.50
2023-03-21T18:26:44.433Z,15.63
2023-03-21T18:32:07.074Z,17.63
2023-03-21T18:34:36.568Z,16.55
2023-03-21T18:37:04.353Z,15.02
2023-03-21T18:39:36.002Z,14.98
2023-03-21T18:42:04.492Z,14.57
2023-03-21T18:44:42.310Z,16.88
2023-03-21T18:47:09.246Z,15.30
2023-03-21T18:50:12.155Z,15.80
2023-03-21T18:52:24.644Z,15.82
2023-03-21T18:54:54.527Z,14.60
2023-03-21T18:57:38.726Z,16.98
2023-03-21T19:00:18.494Z,14.68
2023-03-21T19:02:48.415Z,19.08
2023-03-21T19:05:18.731Z,14.40
2023-03-21T19:07:46.877Z,14.68
2023-03-21T19:10:18.472Z,14.88
2023-03-21T19:12:47.064Z,16.48
2023-03-21T19:15:14.088Z,14.20
2023-03-21T19:20:34.053Z,15.05
2023-03-21T19:23:03.747Z,17.85
2023-03-21T19:25:30.809Z,14.75
2023-03-21T19:27:57.449Z,15.32
2023-03-21T19:30:25.377Z,15.27
2023-03-21T19:32:53.689Z,16.20
2023-03-21T19:35:20.603Z,16.92
2023-03-21T19:37:47.512Z,15.70
2023-03-21T19:40:16.729Z,16.95
2023-03-21T19:42:43.418Z,18.73
2023-03-21T19:45:12.693Z,18.40
2023-03-21T19:47:43.746Z,22.85
2023-03-21T19:52:58.124Z,18.80
2023-03-21T19:55:25.398Z,18.77
2023-03-21T19:57:53.984Z,19.45
2023-03-21T20:00:23.284Z,18.08
2023-03-21T20:02:54.777Z,19.85
2023-03-21T20:05:22.497Z,19.25
2023-03-21T20:07:49.689Z,22.73
2023-03-21T20:10:17.620Z,20.27
2023-03-21T20:12:44.498Z,22.20
2023-03-21T20:15:18.279Z,19.27
2023-03-21T20:17:55.245Z,21.00
2023-03-21T20:20:23.731Z,23.77
2023-03-21T20:23:06.380Z,20.73
2023-03-21T20:25:34.872Z,25.95
2023-03-21T20:28:25.050Z,21.48
2023-03-21T20:30:51.451Z,26.25
2023-03-21T20:33:21.863Z,23.15
2023-03-21T20:38:42.933Z,20.60
2023-03-21T20:41:09.630Z,22.20
2023-03-21T20:46:30.191Z,21.80
2023-03-21T20:48:59.369Z,21.63
2023-03-21T20:54:16.244Z,23.55
2023-03-21T20:56:43.536Z,22.67
2023-03-21T20:59:20.892Z,23.17
2023-03-21T21:01:52.375Z,28.88
2023-03-21T21:04:41.235Z,24.52
2023-03-21T21:07:12.894Z,25.27
2023-03-21T21:09:40.280Z,24.23
2023-03-21T21:12:08.736Z,26.88
2023-03-21T21:14:36.259Z,25.40
2023-03-21T21:17:22.499Z,22.02
2023-03-21T21:19:51.218Z,23.60
2023-03-21T21:22:18.077Z,24.58
2023-03-21T21:24:46.939Z,28.70
2023-03-21T21:27:15.701Z,27.80
2023-03-21T21:29:47.958Z,29.17
2023-03-21T21:32:20.603Z,26.73
2023-03-21T21:34:49.520Z,26.55
2023-03-21T21:37:16.800Z,24.52
2023-03-21T21:39:46.533Z,25.20
2023-03-21T21:42:13.231Z,27.67
2023-03-21T21:44:46.637Z,26.13
2023-03-21T21:47:13.751Z,26.48
2023-03-21T21:49:41.545Z,25.48
2023-03-21T21:52:08.345Z,26.42
2023-03-21T21:54:36.513Z,24.23
2023-03-21T21:57:04.409Z,25.17
2023-03-21T21:59:36.351Z,24.33
2023-03-21T22:02:05.575Z,25.85
2023-03-21T22:04:33.458Z,23.83
2023-03-21T22:07:00.310Z,24.95
2023-03-21T22:09:27.607Z,26.60
2023-03-21T22:11:55.511Z,30.45
2023-03-21T22:14:22.396Z,26.42
2023-03-21T22:16:49.185Z,26.90
2023-03-21T22:19:15.988Z,26.73
2023-03-21T22:21:43.545Z,25.23
2023-03-21T22:24:10.333Z,24.90
2023-03-21T22:26:38.556Z,27.98
2023-03-21T22:29:08.145Z,27.80
2023-03-21T22:31:35.017Z,28.27
2023-03-21T22:34:01.941Z,24.08
2023-03-21T22:36:29.451Z,28.08
2023-03-21T22:38:56.524Z,25.83
2023-03-21T22:41:23.536Z,28.52
2023-03-21T22:43:50.669Z,26.02
2023-03-21T22:46:20.153Z,27.25
2023-03-21T22:48:46.923Z,27.90
2023-03-21T22:51:14.553Z,23.55
2023-03-21T22:53:41.321Z,26.75
2023-03-21T22:56:10.132Z,25.35
2023-03-21T22:58:36.864Z,24.73
2023-03-21T23:01:05.342Z,25.80
2023-03-21T23:03:32.193Z,21.95
2023-03-21T23:06:01.511Z,21.33
2023-03-21T23:08:28.577Z,18.27
2023-03-21T23:10:55.482Z,22.95
2023-03-21T23:13:29.338Z,19.35
2023-03-21T23:15:56.399Z,19.83
2023-03-21T23:18:23.078Z,22.90
2023-03-21T23:20:50.137Z,16.80
2023-03-21T23:23:17.009Z,17.38
2023-03-21T23:25:43.758Z,21.25
2023-03-21T23:28:11.478Z,18.88
2023-03-21T23:30:39.319Z,17.77
2023-03-21T23:33:06.282Z,21.15
2023-03-21T23:35:37.748Z,20.02
2023-03-21T23:38:05.476Z,17.25
2023-03-21T23:40:32.139Z,24.15
2023-03-21T23:43:02.134Z,19.35
2023-03-21T23:45:28.918Z,18.15
2023-03-21T23:47:55.770Z,19.35
2023-03-21T23:50:23.966Z,20.48
2023-03-21T23:52:53.442Z,16.33
2023-03-21T23:55:20.398Z,20.70
2023-03-21T23:57:47.242Z,16.23
